sensor_id;sensor_type;location;lat;lon;timestamp;pressure;altitude;pressure_sealevel;temperature;humidity
84714;BME280;74938;42.658;23.248;2023-12-22T00:01:51;92501.03;;;-0.04;78.82
84714;BME280;74938;42.658;23.248;2023-12-22T00:04:17;92501.84;;;-0.04;79.41
84714;BME280;74938;42.658;23.248;2023-12-22T00:06:42;92484.81;;;-0.18;79.37
84714;BME280;74938;42.658;23.248;2023-12-22T00:09:08;92485.88;;;-0.12;78.21
84714;BME280;74938;42.658;23.248;2023-12-22T00:11:33;92494.97;;;-0.18;79.22
84714;BME280;74938;42.658;23.248;2023-12-22T00:13:58;92494.19;;;-0.18;78.97
84714;BME280;74938;42.658;23.248;2023-12-22T00:16:24;92493.53;;;0.17;79.27
84714;BME280;74938;42.658;23.248;2023-12-22T00:18:49;92496.44;;;0.29;77.81
84714;BME280;74938;42.658;23.248;2023-12-22T00:21:14;92486.00;;;0.24;77.84
84714;BME280;74938;42.658;23.248;2023-12-22T00:23:40;92481.03;;;0.16;77.38
84714;BME280;74938;42.658;23.248;2023-12-22T00:26:05;92480.75;;;0.11;79.18
84714;BME280;74938;42.658;23.248;2023-12-22T00:28:30;92472.16;;;-0.03;77.99
84714;BME280;74938;42.658;23.248;2023-12-22T00:30:59;92457.88;;;0.11;77.75
84714;BME280;74938;42.658;23.248;2023-12-22T00:33:25;92447.63;;;0.04;79.25
84714;BME280;74938;42.658;23.248;2023-12-22T00:35:51;92438.06;;;-0.09;78.61
84714;BME280;74938;42.658;23.248;2023-12-22T00:38:16;92439.94;;;-0.03;78.45
84714;BME280;74938;42.658;23.248;2023-12-22T00:40:42;92436.50;;;-0.10;80.62
84714;BME280;74938;42.658;23.248;2023-12-22T00:43:07;92421.72;;;-0.06;79.73
84714;BME280;74938;42.658;23.248;2023-12-22T00:45:32;92432.94;;;0.14;79.26
84714;BME280;74938;42.658;23.248;2023-12-22T00:47:58;92442.66;;;-0.04;79.41
84714;BME280;74938;42.658;23.248;2023-12-22T00:50:23;92448.50;;;-0.04;80.28
84714;BME280;74938;42.658;23.248;2023-12-22T00:52:48;92458.13;;;0.01;80.29
84714;BME280;74938;42.658;23.248;2023-12-22T00:55:14;92454.56;;;-0.05;80.47
84714;BME280;74938;42.658;23.248;2023-12-22T00:57:39;92439.50;;;0.09;80.14
84714;BME280;74938;42.658;23.248;2023-12-22T01:00:05;92458.34;;;0.29;78.65
84714;BME280;74938;42.658;23.248;2023-12-22T01:02:34;92449.66;;;0.09;78.82
84714;BME280;74938;42.658;23.248;2023-12-22T01:04:59;92445.63;;;-0.01;79.71
84714;BME280;74938;42.658;23.248;2023-12-22T01:07:24;92450.78;;;-0.09;79.56
84714;BME280;74938;42.658;23.248;2023-12-22T01:09:51;92456.66;;;0.07;80.50
84714;BME280;74938;42.658;23.248;2023-12-22T01:12:16;92453.59;;;-0.04;80.21
84714;BME280;74938;42.658;23.248;2023-12-22T01:14:41;92440.56;;;0.14;80.09
84714;BME280;74938;42.658;23.248;2023-12-22T01:17:10;92437.38;;;0.27;78.78
84714;BME280;74938;42.658;23.248;2023-12-22T01:19:35;92447.38;;;0.14;79.17
84714;BME280;74938;42.658;23.248;2023-12-22T01:22:01;92439.66;;;0.07;80.42
84714;BME280;74938;42.658;23.248;2023-12-22T01:24:26;92428.88;;;0.20;79.41
84714;BME280;74938;42.658;23.248;2023-12-22T01:26:51;92431.78;;;0.17;78.61
84714;BME280;74938;42.658;23.248;2023-12-22T01:29:17;92431.69;;;0.10;79.25
84714;BME280;74938;42.658;23.248;2023-12-22T01:31:42;92426.09;;;0.15;79.24
84714;BME280;74938;42.658;23.248;2023-12-22T01:34:08;92429.50;;;0.07;80.96
84714;BME280;74938;42.658;23.248;2023-12-22T01:36:35;92422.44;;;0.17;80.46
84714;BME280;74938;42.658;23.248;2023-12-22T01:39:00;92416.88;;;0.43;79.16
84714;BME280;74938;42.658;23.248;2023-12-22T01:41:25;92415.19;;;0.35;78.63
84714;BME280;74938;42.658;23.248;2023-12-22T01:43:51;92407.59;;;0.35;78.92
84714;BME280;74938;42.658;23.248;2023-12-22T01:46:16;92392.38;;;0.57;77.21
84714;BME280;74938;42.658;23.248;2023-12-22T01:48:42;92393.03;;;0.44;78.85
84714;BME280;74938;42.658;23.248;2023-12-22T01:51:08;92392.13;;;0.66;78.43
84714;BME280;74938;42.658;23.248;2023-12-22T01:53:34;92398.22;;;0.51;77.36
84714;BME280;74938;42.658;23.248;2023-12-22T01:56:01;92392.81;;;0.60;77.41
84714;BME280;74938;42.658;23.248;2023-12-22T01:58:27;92373.19;;;0.54;77.62
84714;BME280;74938;42.658;23.248;2023-12-22T02:00:54;92372.81;;;0.36;78.59
84714;BME280;74938;42.658;23.248;2023-12-22T02:03:20;92391.66;;;0.27;78.50
84714;BME280;74938;42.658;23.248;2023-12-22T02:05:46;92384.13;;;0.19;79.37
84714;BME280;74938;42.658;23.248;2023-12-22T02:08:12;92377.84;;;0.15;80.48
84714;BME280;74938;42.658;23.248;2023-12-22T02:10:38;92395.50;;;0.23;78.61
84714;BME280;74938;42.658;23.248;2023-12-22T02:13:04;92386.88;;;0.53;78.97
84714;BME280;74938;42.658;23.248;2023-12-22T02:15:31;92381.22;;;0.51;78.37
84714;BME280;74938;42.658;23.248;2023-12-22T02:18:10;92375.91;;;0.67;77.81
84714;BME280;74938;42.658;23.248;2023-12-22T02:20:38;92363.66;;;0.56;78.39
84714;BME280;74938;42.658;23.248;2023-12-22T02:23:03;92362.06;;;0.55;79.30
84714;BME280;74938;42.658;23.248;2023-12-22T02:25:29;92357.78;;;0.56;78.10
84714;BME280;74938;42.658;23.248;2023-12-22T02:28:01;92348.03;;;0.59;77.71
84714;BME280;74938;42.658;23.248;2023-12-22T02:30:32;92352.81;;;0.48;77.36
84714;BME280;74938;42.658;23.248;2023-12-22T02:33:00;92357.47;;;0.44;78.54
84714;BME280;74938;42.658;23.248;2023-12-22T02:35:28;92353.91;;;0.60;78.48
84714;BME280;74938;42.658;23.248;2023-12-22T02:37:56;92362.81;;;0.70;77.36
84714;BME280;74938;42.658;23.248;2023-12-22T02:40:23;92363.81;;;0.55;77.42
84714;BME280;74938;42.658;23.248;2023-12-22T02:42:49;92372.06;;;0.57;78.11
84714;BME280;74938;42.658;23.248;2023-12-22T02:45:16;92372.00;;;0.72;78.33
84714;BME280;74938;42.658;23.248;2023-12-22T02:47:42;92363.56;;;0.86;76.76
84714;BME280;74938;42.658;23.248;2023-12-22T02:50:09;92362.19;;;0.83;76.79
84714;BME280;74938;42.658;23.248;2023-12-22T02:52:34;92359.44;;;0.85;76.30
84714;BME280;74938;42.658;23.248;2023-12-22T02:55:01;92344.63;;;0.67;77.05
84714;BME280;74938;42.658;23.248;2023-12-22T02:57:26;92349.13;;;0.72;77.21
84714;BME280;74938;42.658;23.248;2023-12-22T02:59:51;92340.50;;;0.66;77.97
84714;BME280;74938;42.658;23.248;2023-12-22T03:02:17;92334.56;;;0.80;76.75
84714;BME280;74938;42.658;23.248;2023-12-22T03:04:42;92324.81;;;0.62;77.16
84714;BME280;74938;42.658;23.248;2023-12-22T03:07:08;92330.69;;;0.63;77.33
84714;BME280;74938;42.658;23.248;2023-12-22T03:09:33;92323.34;;;0.75;77.23
84714;BME280;74938;42.658;23.248;2023-12-22T03:11:59;92314.66;;;0.84;76.98
84714;BME280;74938;42.658;23.248;2023-12-22T03:14:30;92323.19;;;0.97;77.03
84714;BME280;74938;42.658;23.248;2023-12-22T03:16:58;92315.84;;;0.88;75.70
84714;BME280;74938;42.658;23.248;2023-12-22T03:19:23;92332.19;;;0.79;76.79
84714;BME280;74938;42.658;23.248;2023-12-22T03:21:49;92346.13;;;0.83;76.88
84714;BME280;74938;42.658;23.248;2023-12-22T03:24:14;92353.00;;;1.10;76.42
84714;BME280;74938;42.658;23.248;2023-12-22T03:26:40;92339.22;;;0.98;77.25
84714;BME280;74938;42.658;23.248;2023-12-22T03:29:05;92343.53;;;0.97;76.43
84714;BME280;74938;42.658;23.248;2023-12-22T03:31:30;92347.63;;;0.98;76.18
84714;BME280;74938;42.658;23.248;2023-12-22T03:33:56;92348.06;;;0.81;77.32
84714;BME280;74938;42.658;23.248;2023-12-22T03:36:21;92350.78;;;0.79;77.82
84714;BME280;74938;42.658;23.248;2023-12-22T03:38:47;92350.91;;;0.92;77.43
84714;BME280;74938;42.658;23.248;2023-12-22T03:41:12;92337.56;;;1.12;77.11
84714;BME280;74938;42.658;23.248;2023-12-22T03:43:38;92339.31;;;1.11;78.07
84714;BME280;74938;42.658;23.248;2023-12-22T03:46:03;92329.66;;;1.00;77.48
84714;BME280;74938;42.658;23.248;2023-12-22T03:48:29;92333.00;;;1.00;78.00
84714;BME280;74938;42.658;23.248;2023-12-22T03:50:54;92340.56;;;0.94;78.85
84714;BME280;74938;42.658;23.248;2023-12-22T03:53:19;92341.25;;;0.88;78.90
84714;BME280;74938;42.658;23.248;2023-12-22T03:55:45;92342.63;;;0.84;79.20
84714;BME280;74938;42.658;23.248;2023-12-22T03:58:10;92334.84;;;0.92;79.67
84714;BME280;74938;42.658;23.248;2023-12-22T04:00:36;92340.81;;;0.99;79.59
84714;BME280;74938;42.658;23.248;2023-12-22T04:03:01;92341.16;;;1.17;79.41
84714;BME280;74938;42.658;23.248;2023-12-22T04:05:27;92342.47;;;0.92;80.18
84714;BME280;74938;42.658;23.248;2023-12-22T04:07:53;92340.66;;;1.07;79.55
84714;BME280;74938;42.658;23.248;2023-12-22T04:10:18;92350.72;;;1.15;80.12
84714;BME280;74938;42.658;23.248;2023-12-22T04:12:44;92357.75;;;1.13;79.09
84714;BME280;74938;42.658;23.248;2023-12-22T04:15:09;92350.81;;;1.28;78.90
84714;BME280;74938;42.658;23.248;2023-12-22T04:17:35;92347.47;;;1.00;80.66
84714;BME280;74938;42.658;23.248;2023-12-22T04:20:01;92338.72;;;0.88;81.65
84714;BME280;74938;42.658;23.248;2023-12-22T04:22:26;92349.03;;;1.01;81.39
84714;BME280;74938;42.658;23.248;2023-12-22T04:24:52;92338.38;;;0.91;82.05
84714;BME280;74938;42.658;23.248;2023-12-22T04:27:17;92338.19;;;1.14;81.92
84714;BME280;74938;42.658;23.248;2023-12-22T04:29:43;92328.47;;;1.24;81.41
84714;BME280;74938;42.658;23.248;2023-12-22T04:32:09;92328.94;;;1.34;80.54
84714;BME280;74938;42.658;23.248;2023-12-22T04:34:34;92330.00;;;1.18;81.12
84714;BME280;74938;42.658;23.248;2023-12-22T04:36:59;92321.41;;;1.19;82.17
84714;BME280;74938;42.658;23.248;2023-12-22T04:39:25;92311.16;;;1.13;81.64
84714;BME280;74938;42.658;23.248;2023-12-22T04:41:50;92312.72;;;1.35;81.53
84714;BME280;74938;42.658;23.248;2023-12-22T04:44:15;92300.44;;;1.17;80.98
84714;BME280;74938;42.658;23.248;2023-12-22T04:46:41;92297.19;;;1.30;81.26
84714;BME280;74938;42.658;23.248;2023-12-22T04:49:06;92316.22;;;1.34;81.35
84714;BME280;74938;42.658;23.248;2023-12-22T04:51:31;92304.38;;;1.20;80.71
84714;BME280;74938;42.658;23.248;2023-12-22T04:53:57;92302.63;;;1.20;81.35
84714;BME280;74938;42.658;23.248;2023-12-22T04:56:22;92304.66;;;1.31;80.40
84714;BME280;74938;42.658;23.248;2023-12-22T04:58:47;92289.56;;;1.02;80.01
84714;BME280;74938;42.658;23.248;2023-12-22T05:01:13;92295.13;;;1.12;79.92
84714;BME280;74938;42.658;23.248;2023-12-22T05:03:38;92302.19;;;1.17;80.34
84714;BME280;74938;42.658;23.248;2023-12-22T05:06:04;92298.25;;;1.14;79.31
84714;BME280;74938;42.658;23.248;2023-12-22T05:08:29;92282.53;;;1.32;79.44
84714;BME280;74938;42.658;23.248;2023-12-22T05:10:54;92289.47;;;1.45;78.56
84714;BME280;74938;42.658;23.248;2023-12-22T05:13:20;92286.31;;;1.43;79.30
84714;BME280;74938;42.658;23.248;2023-12-22T05:15:45;92298.91;;;1.51;78.74
84714;BME280;74938;42.658;23.248;2023-12-22T05:18:10;92286.59;;;1.26;80.28
84714;BME280;74938;42.658;23.248;2023-12-22T05:20:36;92291.78;;;1.12;81.83
84714;BME280;74938;42.658;23.248;2023-12-22T05:23:01;92294.84;;;1.00;81.94
84714;BME280;74938;42.658;23.248;2023-12-22T05:25:27;92290.09;;;1.19;82.13
84714;BME280;74938;42.658;23.248;2023-12-22T05:27:54;92295.03;;;1.27;81.19
84714;BME280;74938;42.658;23.248;2023-12-22T05:30:19;92293.56;;;1.46;80.45
84714;BME280;74938;42.658;23.248;2023-12-22T05:32:45;92293.63;;;1.52;80.61
84714;BME280;74938;42.658;23.248;2023-12-22T05:35:10;92280.47;;;2.37;83.53
84714;BME280;74938;42.658;23.248;2023-12-22T05:37:36;92285.88;;;3.28;81.14
84714;BME280;74938;42.658;23.248;2023-12-22T05:40:02;92294.44;;;3.73;80.74
84714;BME280;74938;42.658;23.248;2023-12-22T05:42:27;92275.69;;;3.99;80.90
84714;BME280;74938;42.658;23.248;2023-12-22T05:44:52;92269.03;;;3.92;80.62
84714;BME280;74938;42.658;23.248;2023-12-22T05:47:18;92281.56;;;4.06;79.51
84714;BME280;74938;42.658;23.248;2023-12-22T05:49:44;92253.13;;;4.34;77.95
84714;BME280;74938;42.658;23.248;2023-12-22T05:52:09;92269.09;;;4.30;79.73
84714;BME280;74938;42.658;23.248;2023-12-22T05:54:35;92258.16;;;4.09;79.41
84714;BME280;74938;42.658;23.248;2023-12-22T05:57:00;92268.41;;;4.03;79.98
84714;BME280;74938;42.658;23.248;2023-12-22T05:59:26;92249.91;;;4.07;80.97
84714;BME280;74938;42.658;23.248;2023-12-22T06:01:55;92247.53;;;4.12;79.91
84714;BME280;74938;42.658;23.248;2023-12-22T06:04:21;92251.59;;;4.27;80.02
84714;BME280;74938;42.658;23.248;2023-12-22T06:06:46;92261.66;;;4.22;80.91
84714;BME280;74938;42.658;23.248;2023-12-22T06:09:12;92274.47;;;4.08;75.92
84714;BME280;74938;42.658;23.248;2023-12-22T06:11:38;92300.34;;;3.74;74.65
84714;BME280;74938;42.658;23.248;2023-12-22T06:14:05;92274.47;;;3.44;72.95
84714;BME280;74938;42.658;23.248;2023-12-22T06:16:30;92294.91;;;3.24;74.03
84714;BME280;74938;42.658;23.248;2023-12-22T06:18:56;92287.41;;;2.96;74.15
84714;BME280;74938;42.658;23.248;2023-12-22T06:21:21;92306.25;;;2.89;76.68
84714;BME280;74938;42.658;23.248;2023-12-22T06:23:47;92312.94;;;3.03;74.85
84714;BME280;74938;42.658;23.248;2023-12-22T06:26:12;92308.81;;;2.95;72.50
84714;BME280;74938;42.658;23.248;2023-12-22T06:28:38;92309.19;;;2.72;74.90
84714;BME280;74938;42.658;23.248;2023-12-22T06:31:09;92316.84;;;2.72;75.64
84714;BME280;74938;42.658;23.248;2023-12-22T06:33:43;92313.88;;;2.69;75.42
84714;BME280;74938;42.658;23.248;2023-12-22T06:36:25;92303.88;;;2.67;74.37
84714;BME280;74938;42.658;23.248;2023-12-22T06:38:52;92318.59;;;2.72;75.83
84714;BME280;74938;42.658;23.248;2023-12-22T06:41:22;92307.97;;;2.55;76.84
84714;BME280;74938;42.658;23.248;2023-12-22T06:43:49;92321.28;;;2.51;77.17
84714;BME280;74938;42.658;23.248;2023-12-22T06:46:21;92324.94;;;2.28;77.62
84714;BME280;74938;42.658;23.248;2023-12-22T06:48:48;92316.34;;;2.42;77.40
84714;BME280;74938;42.658;23.248;2023-12-22T06:51:20;92308.88;;;2.34;78.44
84714;BME280;74938;42.658;23.248;2023-12-22T06:53:50;92318.91;;;2.42;77.96
84714;BME280;74938;42.658;23.248;2023-12-22T06:58:46;92330.66;;;2.37;78.28
84714;BME280;74938;42.658;23.248;2023-12-22T07:01:18;92315.00;;;2.47;78.40
84714;BME280;74938;42.658;23.248;2023-12-22T07:03:45;92307.56;;;2.52;78.65
84714;BME280;74938;42.658;23.248;2023-12-22T07:06:10;92324.22;;;2.41;80.30
84714;BME280;74938;42.658;23.248;2023-12-22T07:08:35;92320.09;;;2.47;81.54
84714;BME280;74938;42.658;23.248;2023-12-22T07:11:01;92316.41;;;2.56;80.59
84714;BME280;74938;42.658;23.248;2023-12-22T07:13:26;92324.78;;;2.43;79.47
84714;BME280;74938;42.658;23.248;2023-12-22T07:15:51;92333.44;;;2.49;78.24
84714;BME280;74938;42.658;23.248;2023-12-22T07:18:17;92337.41;;;2.64;77.96
84714;BME280;74938;42.658;23.248;2023-12-22T07:20:42;92338.97;;;2.59;78.34
84714;BME280;74938;42.658;23.248;2023-12-22T07:23:10;92318.16;;;2.55;79.56
84714;BME280;74938;42.658;23.248;2023-12-22T07:25:36;92331.13;;;2.67;77.54
84714;BME280;74938;42.658;23.248;2023-12-22T07:28:04;92328.59;;;2.67;77.76
84714;BME280;74938;42.658;23.248;2023-12-22T07:30:29;92333.66;;;2.60;78.30
84714;BME280;74938;42.658;23.248;2023-12-22T07:32:54;92322.91;;;2.58;78.98
84714;BME280;74938;42.658;23.248;2023-12-22T07:35:20;92329.00;;;2.70;78.10
84714;BME280;74938;42.658;23.248;2023-12-22T07:37:45;92336.25;;;2.67;79.33
84714;BME280;74938;42.658;23.248;2023-12-22T07:40:11;92346.84;;;2.70;79.31
84714;BME280;74938;42.658;23.248;2023-12-22T07:42:36;92338.25;;;2.85;78.75
84714;BME280;74938;42.658;23.248;2023-12-22T07:45:03;92343.50;;;2.70;80.17
84714;BME280;74938;42.658;23.248;2023-12-22T07:47:29;92347.97;;;2.61;79.63
84714;BME280;74938;42.658;23.248;2023-12-22T07:49:55;92335.66;;;2.58;80.61
84714;BME280;74938;42.658;23.248;2023-12-22T07:52:20;92356.44;;;2.68;80.40
84714;BME280;74938;42.658;23.248;2023-12-22T07:54:46;92359.41;;;2.78;80.30
84714;BME280;74938;42.658;23.248;2023-12-22T07:57:12;92350.41;;;2.89;78.28
84714;BME280;74938;42.658;23.248;2023-12-22T07:59:38;92354.28;;;2.65;78.90
84714;BME280;74938;42.658;23.248;2023-12-22T08:02:03;92354.69;;;2.69;80.78
84714;BME280;74938;42.658;23.248;2023-12-22T08:04:28;92369.22;;;2.82;81.43
84714;BME280;74938;42.658;23.248;2023-12-22T08:06:54;92369.31;;;3.21;81.37
84714;BME280;74938;42.658;23.248;2023-12-22T08:09:19;92383.44;;;3.17;81.68
84714;BME280;74938;42.658;23.248;2023-12-22T08:11:45;92388.31;;;3.12;79.85
84714;BME280;74938;42.658;23.248;2023-12-22T08:14:12;92401.28;;;3.04;80.02
84714;BME280;74938;42.658;23.248;2023-12-22T08:16:37;92399.13;;;2.94;79.18
84714;BME280;74938;42.658;23.248;2023-12-22T08:19:03;92399.09;;;2.88;81.50
84714;BME280;74938;42.658;23.248;2023-12-22T08:21:28;92410.72;;;3.10;81.13
84714;BME280;74938;42.658;23.248;2023-12-22T08:23:53;92412.06;;;2.93;80.43
84714;BME280;74938;42.658;23.248;2023-12-22T08:26:19;92411.81;;;2.81;81.25
84714;BME280;74938;42.658;23.248;2023-12-22T08:28:44;92402.44;;;3.01;80.33
84714;BME280;74938;42.658;23.248;2023-12-22T08:31:10;92393.63;;;3.04;80.94
84714;BME280;74938;42.658;23.248;2023-12-22T08:33:37;92404.66;;;3.11;81.99
84714;BME280;74938;42.658;23.248;2023-12-22T08:36:06;92416.97;;;3.01;82.61
84714;BME280;74938;42.658;23.248;2023-12-22T08:38:31;92407.53;;;2.95;80.99
84714;BME280;74938;42.658;23.248;2023-12-22T08:40:57;92402.44;;;3.01;80.96
84714;BME280;74938;42.658;23.248;2023-12-22T08:43:22;92408.97;;;3.24;81.01
84714;BME280;74938;42.658;23.248;2023-12-22T08:45:47;92406.22;;;3.25;80.81
84714;BME280;74938;42.658;23.248;2023-12-22T08:48:13;92400.69;;;3.15;81.43
84714;BME280;74938;42.658;23.248;2023-12-22T08:50:38;92393.69;;;3.43;82.38
84714;BME280;74938;42.658;23.248;2023-12-22T08:53:04;92393.88;;;3.35;84.24
84714;BME280;74938;42.658;23.248;2023-12-22T08:55:29;92398.38;;;3.66;83.47
84714;BME280;74938;42.658;23.248;2023-12-22T08:57:54;92391.31;;;3.81;81.60
84714;BME280;74938;42.658;23.248;2023-12-22T09:00:20;92394.84;;;3.87;81.38
84714;BME280;74938;42.658;23.248;2023-12-22T09:02:45;92403.28;;;4.07;81.56
84714;BME280;74938;42.658;23.248;2023-12-22T09:05:11;92413.31;;;4.02;81.42
84714;BME280;74938;42.658;23.248;2023-12-22T09:07:36;92420.97;;;4.15;80.95
84714;BME280;74938;42.658;23.248;2023-12-22T09:10:02;92421.72;;;4.29;80.25
84714;BME280;74938;42.658;23.248;2023-12-22T09:12:28;92430.94;;;4.37;80.87
84714;BME280;74938;42.658;23.248;2023-12-22T09:14:54;92421.25;;;4.52;79.21
84714;BME280;74938;42.658;23.248;2023-12-22T09:17:19;92432.91;;;4.41;79.11
84714;BME280;74938;42.658;23.248;2023-12-22T09:19:45;92429.72;;;4.59;78.21
84714;BME280;74938;42.658;23.248;2023-12-22T09:22:10;92440.69;;;4.73;78.02
84714;BME280;74938;42.658;23.248;2023-12-22T09:24:35;92437.91;;;4.74;78.97
84714;BME280;74938;42.658;23.248;2023-12-22T09:27:01;92428.47;;;4.81;78.44
84714;BME280;74938;42.658;23.248;2023-12-22T09:29:31;92436.56;;;4.72;78.12
84714;BME280;74938;42.658;23.248;2023-12-22T09:32:01;92433.38;;;4.83;77.42
84714;BME280;74938;42.658;23.248;2023-12-22T09:34:26;92434.94;;;4.84;77.75
84714;BME280;74938;42.658;23.248;2023-12-22T09:36:53;92433.19;;;4.71;78.79
84714;BME280;74938;42.658;23.248;2023-12-22T09:39:19;92429.25;;;4.82;78.08
84714;BME280;74938;42.658;23.248;2023-12-22T09:41:47;92426.25;;;4.85;78.41
84714;BME280;74938;42.658;23.248;2023-12-22T09:44:15;92428.06;;;4.84;78.82
84714;BME280;74938;42.658;23.248;2023-12-22T09:46:43;92415.06;;;4.79;78.97
84714;BME280;74938;42.658;23.248;2023-12-22T09:49:09;92405.66;;;4.73;78.66
84714;BME280;74938;42.658;23.248;2023-12-22T09:51:35;92397.28;;;4.91;79.00
84714;BME280;74938;42.658;23.248;2023-12-22T09:54:02;92414.81;;;4.94;79.29
84714;BME280;74938;42.658;23.248;2023-12-22T09:56:29;92408.53;;;4.90;79.68
84714;BME280;74938;42.658;23.248;2023-12-22T09:58:56;92408.69;;;5.02;80.10
84714;BME280;74938;42.658;23.248;2023-12-22T10:01:22;92393.09;;;5.03;77.79
84714;BME280;74938;42.658;23.248;2023-12-22T10:03:49;92404.28;;;5.09;76.81
84714;BME280;74938;42.658;23.248;2023-12-22T10:06:14;92403.91;;;5.05;78.70
84714;BME280;74938;42.658;23.248;2023-12-22T10:08:43;92412.22;;;5.01;78.33
84714;BME280;74938;42.658;23.248;2023-12-22T10:11:10;92402.41;;;4.98;78.90
84714;BME280;74938;42.658;23.248;2023-12-22T10:13:37;92402.53;;;5.03;77.75
84714;BME280;74938;42.658;23.248;2023-12-22T10:16:06;92396.22;;;5.12;76.57
84714;BME280;74938;42.658;23.248;2023-12-22T10:18:32;92389.28;;;5.19;76.08
84714;BME280;74938;42.658;23.248;2023-12-22T10:20:58;92381.59;;;5.19;76.88
84714;BME280;74938;42.658;23.248;2023-12-22T10:23:23;92382.94;;;5.21;78.15
84714;BME280;74938;42.658;23.248;2023-12-22T10:25:50;92382.91;;;5.28;76.49
84714;BME280;74938;42.658;23.248;2023-12-22T10:28:16;92373.66;;;5.27;77.19
84714;BME280;74938;42.658;23.248;2023-12-22T10:30:47;92373.41;;;5.35;76.36
84714;BME280;74938;42.658;23.248;2023-12-22T10:33:13;92376.41;;;5.32;77.52
84714;BME280;74938;42.658;23.248;2023-12-22T10:35:41;92377.13;;;5.39;77.09
84714;BME280;74938;42.658;23.248;2023-12-22T10:38:06;92370.94;;;5.53;76.15
84714;BME280;74938;42.658;23.248;2023-12-22T10:40:32;92357.47;;;5.58;74.84
84714;BME280;74938;42.658;23.248;2023-12-22T10:42:58;92354.13;;;5.57;75.96
84714;BME280;74938;42.658;23.248;2023-12-22T10:45:24;92350.78;;;5.57;75.00
84714;BME280;74938;42.658;23.248;2023-12-22T10:47:49;92338.50;;;5.66;74.07
84714;BME280;74938;42.658;23.248;2023-12-22T10:50:19;92337.69;;;5.90;74.42
84714;BME280;74938;42.658;23.248;2023-12-22T10:52:49;92320.47;;;5.97;72.11
84714;BME280;74938;42.658;23.248;2023-12-22T10:55:15;92325.06;;;6.13;72.87
84714;BME280;74938;42.658;23.248;2023-12-22T10:57:41;92310.44;;;6.14;74.51
84714;BME280;74938;42.658;23.248;2023-12-22T11:00:07;92312.00;;;5.97;74.59
84714;BME280;74938;42.658;23.248;2023-12-22T11:02:34;92321.84;;;6.00;73.53
84714;BME280;74938;42.658;23.248;2023-12-22T11:05:04;92318.94;;;6.14;72.70
84714;BME280;74938;42.658;23.248;2023-12-22T11:07:32;92298.69;;;6.24;71.37
84714;BME280;74938;42.658;23.248;2023-12-22T11:10:02;92294.09;;;6.45;70.05
84714;BME280;74938;42.658;23.248;2023-12-22T11:12:31;92287.25;;;6.57;69.90
84714;BME280;74938;42.658;23.248;2023-12-22T11:14:58;92283.03;;;6.62;70.30
84714;BME280;74938;42.658;23.248;2023-12-22T11:17:26;92286.44;;;6.75;69.75
84714;BME280;74938;42.658;23.248;2023-12-22T11:19:53;92276.38;;;6.73;70.62
84714;BME280;74938;42.658;23.248;2023-12-22T11:22:20;92278.34;;;6.89;68.17
84714;BME280;74938;42.658;23.248;2023-12-22T11:24:47;92292.06;;;6.65;68.84
84714;BME280;74938;42.658;23.248;2023-12-22T11:27:16;92290.25;;;6.54;69.93
84714;BME280;74938;42.658;23.248;2023-12-22T11:29:43;92293.03;;;6.52;67.14
84714;BME280;74938;42.658;23.248;2023-12-22T11:32:10;92315.41;;;6.45;68.39
84714;BME280;74938;42.658;23.248;2023-12-22T11:34:39;92310.28;;;6.27;69.86
84714;BME280;74938;42.658;23.248;2023-12-22T11:37:07;92315.06;;;6.42;67.99
84714;BME280;74938;42.658;23.248;2023-12-22T11:39:33;92333.38;;;6.45;69.53
84714;BME280;74938;42.658;23.248;2023-12-22T11:41:59;92335.16;;;6.63;67.79
84714;BME280;74938;42.658;23.248;2023-12-22T11:44:25;92338.09;;;6.48;66.84
84714;BME280;74938;42.658;23.248;2023-12-22T11:47:03;92361.91;;;6.55;69.23
84714;BME280;74938;42.658;23.248;2023-12-22T11:49:35;92359.13;;;6.39;69.01
84714;BME280;74938;42.658;23.248;2023-12-22T11:52:27;92351.56;;;6.44;69.03
84714;BME280;74938;42.658;23.248;2023-12-22T11:54:57;92340.66;;;6.48;67.12
84714;BME280;74938;42.658;23.248;2023-12-22T11:57:36;92357.34;;;6.39;66.78
84714;BME280;74938;42.658;23.248;2023-12-22T12:00:09;92364.16;;;6.45;66.92
84714;BME280;74938;42.658;23.248;2023-12-22T12:02:54;92373.28;;;6.59;66.04
84714;BME280;74938;42.658;23.248;2023-12-22T12:05:20;92378.19;;;6.61;67.21
84714;BME280;74938;42.658;23.248;2023-12-22T12:07:47;92370.81;;;6.53;67.94
84714;BME280;74938;42.658;23.248;2023-12-22T12:13:11;92385.47;;;6.46;67.96
84714;BME280;74938;42.658;23.248;2023-12-22T12:15:38;92389.34;;;6.55;66.79
84714;BME280;74938;42.658;23.248;2023-12-22T12:18:04;92386.47;;;6.63;66.84
84714;BME280;74938;42.658;23.248;2023-12-22T12:20:31;92385.06;;;6.49;67.17
84714;BME280;74938;42.658;23.248;2023-12-22T12:22:57;92355.41;;;6.35;67.08
84714;BME280;74938;42.658;23.248;2023-12-22T12:25:23;92341.59;;;6.36;65.27
84714;BME280;74938;42.658;23.248;2023-12-22T12:28:04;92336.47;;;6.36;66.18
84714;BME280;74938;42.658;23.248;2023-12-22T12:30:31;92340.81;;;6.35;65.48
84714;BME280;74938;42.658;23.248;2023-12-22T12:32:59;92341.44;;;6.31;64.32
84714;BME280;74938;42.658;23.248;2023-12-22T12:35:31;92327.69;;;6.25;64.88
84714;BME280;74938;42.658;23.248;2023-12-22T12:37:57;92323.78;;;6.22;64.39
84714;BME280;74938;42.658;23.248;2023-12-22T12:40:24;92304.97;;;6.10;66.28
84714;BME280;74938;42.658;23.248;2023-12-22T12:42:50;92291.13;;;6.29;66.11
84714;BME280;74938;42.658;23.248;2023-12-22T12:45:22;92278.72;;;6.26;64.17
84714;BME280;74938;42.658;23.248;2023-12-22T12:48:03;92273.31;;;6.35;66.11
84714;BME280;74938;42.658;23.248;2023-12-22T12:50:29;92269.69;;;6.24;67.10
84714;BME280;74938;42.658;23.248;2023-12-22T12:52:55;92273.59;;;6.26;60.78
84714;BME280;74938;42.658;23.248;2023-12-22T12:55:22;92307.44;;;6.35;62.06
84714;BME280;74938;42.658;23.248;2023-12-22T12:57:49;92306.66;;;6.35;63.83
84714;BME280;74938;42.658;23.248;2023-12-22T13:02:51;92332.91;;;6.18;64.57
84714;BME280;74938;42.658;23.248;2023-12-22T13:05:23;92333.66;;;6.55;59.17